createdAt,value
2023-01-08T00:01:39.419Z,94.31
2023-01-08T00:04:08.560Z,94.31
2023-01-08T00:06:38.316Z,94.40
2023-01-08T00:09:10.837Z,94.36
2023-01-08T00:11:39.737Z,94.42
2023-01-08T00:14:09.025Z,94.42
2023-01-08T00:16:38.756Z,94.45
2023-01-08T00:19:11.833Z,94.37
2023-01-08T00:21:40.879Z,94.40
2023-01-08T00:24:10.027Z,94.42
2023-01-08T00:26:39.512Z,94.34
2023-01-08T00:29:09.584Z,94.18
2023-01-08T00:31:39.335Z,94.03
2023-01-08T00:34:11.131Z,94.00
2023-01-08T00:36:40.029Z,93.99
2023-01-08T00:39:09.523Z,94.00
2023-01-08T00:41:43.876Z,93.99
2023-01-08T00:44:12.958Z,93.94
2023-01-08T00:46:41.931Z,93.90
2023-01-08T00:49:11.095Z,93.84
2023-01-08T00:51:40.775Z,93.84
2023-01-08T00:54:11.881Z,93.77
2023-01-08T00:56:41.009Z,93.69
2023-01-08T00:59:10.569Z,93.58
2023-01-08T01:01:39.713Z,93.50
2023-01-08T01:04:14.439Z,93.42
2023-01-08T01:06:43.966Z,93.34
2023-01-08T01:09:13.306Z,93.30
2023-01-08T01:11:42.569Z,93.28
2023-01-08T01:14:11.433Z,93.27
2023-01-08T01:16:44.092Z,93.24
2023-01-08T01:19:13.319Z,93.28
2023-01-08T01:21:43.093Z,93.27
2023-01-08T01:24:13.905Z,93.30
2023-01-08T01:26:45.329Z,93.23
2023-01-08T01:29:14.966Z,93.26
2023-01-08T01:31:43.888Z,93.30
2023-01-08T01:34:12.923Z,93.20
2023-01-08T01:36:42.114Z,93.20
2023-01-08T01:39:11.647Z,93.20
2023-01-08T01:41:43.558Z,93.21
2023-01-08T01:44:41.120Z,93.19
2023-01-08T01:47:27.055Z,93.17
2023-01-08T01:50:00.656Z,93.18
2023-01-08T01:52:33.908Z,93.26
2023-01-08T01:55:07.868Z,93.26
2023-01-08T01:57:40.428Z,93.34
2023-01-08T02:00:13.090Z,93.31
2023-01-08T02:02:45.790Z,93.36
2023-01-08T02:05:15.881Z,93.35
2023-01-08T02:07:53.968Z,93.46
2023-01-08T02:10:34.018Z,93.49
2023-01-08T02:13:11.428Z,93.60
2023-01-08T02:15:48.021Z,93.65
2023-01-08T02:18:26.058Z,93.67
2023-01-08T02:20:57.900Z,93.82
2023-01-08T02:23:36.117Z,93.88
2023-01-08T02:26:20.277Z,93.72
2023-01-08T02:28:59.973Z,93.81
2023-01-08T02:31:32.071Z,93.85
2023-01-08T02:34:01.457Z,93.80
2023-01-08T02:36:43.595Z,93.68
2023-01-08T02:39:39.334Z,93.75
2023-01-08T02:42:13.308Z,93.55
2023-01-08T02:44:53.137Z,93.53
2023-01-08T02:47:29.563Z,93.49
2023-01-08T02:50:08.387Z,93.43
2023-01-08T02:52:50.307Z,93.39
2023-01-08T02:55:23.460Z,93.45
2023-01-08T02:57:54.441Z,93.42
2023-01-08T03:00:24.166Z,93.22
2023-01-08T03:03:01.879Z,93.30
2023-01-08T03:05:31.595Z,93.28
2023-01-08T03:08:02.007Z,93.27
2023-01-08T03:10:32.619Z,93.20
2023-01-08T03:13:03.982Z,93.15
2023-01-08T03:15:36.522Z,93.10
2023-01-08T03:18:15.490Z,92.99
2023-01-08T03:20:46.172Z,92.90
2023-01-08T03:23:18.166Z,92.85
2023-01-08T03:25:48.258Z,92.70
2023-01-08T03:28:21.708Z,92.58
2023-01-08T03:30:53.835Z,92.45
2023-01-08T03:33:26.028Z,92.32
2023-01-08T03:35:58.132Z,92.38
2023-01-08T03:38:31.022Z,92.30
2023-01-08T03:41:12.963Z,92.36
2023-01-08T03:43:46.640Z,92.39
2023-01-08T03:46:22.105Z,92.50
2023-01-08T03:48:54.752Z,92.56
2023-01-08T03:51:24.541Z,92.55
2023-01-08T03:53:58.838Z,92.61
2023-01-08T03:56:28.368Z,92.58
2023-01-08T03:59:00.423Z,92.61
2023-01-08T04:01:29.860Z,92.68
2023-01-08T04:03:59.245Z,92.74
2023-01-08T04:06:28.644Z,92.70
2023-01-08T04:08:57.798Z,92.76
2023-01-08T04:11:27.035Z,92.81
2023-01-08T04:13:59.454Z,92.86
2023-01-08T04:16:28.641Z,92.85
2023-01-08T04:18:58.643Z,92.87
2023-01-08T04:21:27.622Z,92.99
2023-01-08T04:23:57.109Z,92.98
2023-01-08T04:26:26.118Z,92.97
2023-01-08T04:28:59.206Z,92.82
2023-01-08T04:31:28.387Z,93.00
2023-01-08T04:33:57.709Z,93.10
2023-01-08T04:36:26.847Z,93.15
2023-01-08T04:38:56.224Z,93.13
2023-01-08T04:41:25.410Z,93.25
2023-01-08T04:43:58.689Z,93.26
2023-01-08T04:46:27.958Z,93.28
2023-01-08T04:48:57.392Z,93.24
2023-01-08T04:51:26.674Z,93.32
2023-01-08T04:53:55.859Z,93.35
2023-01-08T04:56:24.781Z,93.36
2023-01-08T04:58:59.430Z,93.42
2023-01-08T05:01:29.325Z,93.36
2023-01-08T05:04:01.301Z,93.35
2023-01-08T05:06:31.834Z,93.29
2023-01-08T05:09:01.074Z,93.32
2023-01-08T05:11:29.960Z,93.30
2023-01-08T05:14:00.022Z,93.37
2023-01-08T05:16:28.985Z,93.39
2023-01-08T05:18:58.114Z,93.38
2023-01-08T05:21:27.157Z,93.38
2023-01-08T05:23:56.370Z,93.34
2023-01-08T05:26:26.625Z,93.31
2023-01-08T05:28:59.738Z,93.26
2023-01-08T05:31:29.327Z,93.14
2023-01-08T05:34:00.403Z,93.02
2023-01-08T05:36:30.927Z,93.00
2023-01-08T05:39:00.200Z,93.01
2023-01-08T05:41:29.329Z,92.94
2023-01-08T05:44:00.137Z,92.87
2023-01-08T05:46:29.682Z,92.83
2023-01-08T05:48:59.146Z,92.72
2023-01-08T05:51:29.013Z,92.66
2023-01-08T05:53:57.877Z,92.61
2023-01-08T05:56:26.839Z,92.58
2023-01-08T05:58:58.350Z,92.49
2023-01-08T06:01:27.420Z,92.43
2023-01-08T06:03:58.423Z,92.34
2023-01-08T06:06:27.633Z,92.31
2023-01-08T06:08:56.804Z,92.16
2023-01-08T06:11:25.765Z,92.15
2023-01-08T06:13:58.441Z,92.08
2023-01-08T06:16:27.502Z,92.08
2023-01-08T06:18:56.421Z,92.08
2023-01-08T06:21:25.368Z,92.10
2023-01-08T06:23:56.600Z,92.09
2023-01-08T06:26:25.865Z,92.09
2023-01-08T06:28:57.924Z,92.10
2023-01-08T06:31:27.449Z,92.08
2023-01-08T06:33:56.703Z,91.98
2023-01-08T06:36:25.854Z,91.99
2023-01-08T06:38:56.894Z,92.04
2023-01-08T06:41:26.017Z,91.99
2023-01-08T06:44:01.687Z,92.04
2023-01-08T06:46:31.168Z,91.98
2023-01-08T06:49:00.501Z,91.97
2023-01-08T06:51:29.605Z,91.98
2023-01-08T06:53:58.497Z,91.97
2023-01-08T06:56:27.992Z,91.90
2023-01-08T06:59:01.382Z,91.84
2023-01-08T07:01:30.474Z,91.82
2023-01-08T07:03:59.474Z,91.78
2023-01-08T07:06:28.445Z,91.70
2023-01-08T07:08:57.768Z,91.61
2023-01-08T07:11:26.742Z,91.64
2023-01-08T07:13:59.493Z,91.66
2023-01-08T07:16:28.528Z,91.63
2023-01-08T07:18:57.781Z,91.61
2023-01-08T07:21:26.980Z,91.59
2023-01-08T07:23:56.735Z,91.54
2023-01-08T07:26:26.160Z,91.52
2023-01-08T07:29:01.767Z,91.50
2023-01-08T07:31:30.826Z,91.47
2023-01-08T07:33:59.848Z,91.46
2023-01-08T07:36:29.204Z,91.41
2023-01-08T07:38:58.507Z,91.41
2023-01-08T07:41:27.799Z,91.35
2023-01-08T07:43:59.961Z,91.38
2023-01-08T07:46:29.077Z,91.37
2023-01-08T07:48:58.763Z,91.32
2023-01-08T07:51:27.828Z,91.38
2023-01-08T07:53:57.523Z,91.34
2023-01-08T07:56:27.002Z,91.31
2023-01-08T07:58:59.586Z,91.25
2023-01-08T08:01:28.792Z,91.21
2023-01-08T08:03:57.755Z,91.20
2023-01-08T08:06:29.826Z,91.11
2023-01-08T08:08:59.482Z,91.10
2023-01-08T08:11:28.742Z,91.14
2023-01-08T08:13:59.365Z,91.21
2023-01-08T08:16:28.481Z,91.20
2023-01-08T08:18:59.779Z,91.19
2023-01-08T08:21:30.229Z,91.07
2023-01-08T08:23:59.270Z,91.10
2023-01-08T08:26:28.321Z,91.11
2023-01-08T08:29:01.525Z,91.05
2023-01-08T08:31:30.581Z,91.05
2023-01-08T08:33:59.505Z,90.92
2023-01-08T08:36:32.517Z,91.03
2023-01-08T08:39:03.123Z,91.06
2023-01-08T08:41:32.223Z,91.03
2023-01-08T08:44:01.279Z,90.95
2023-01-08T08:46:30.851Z,91.00
2023-01-08T08:48:59.741Z,90.94
2023-01-08T08:51:29.443Z,90.84
2023-01-08T08:53:58.923Z,90.79
2023-01-08T08:56:29.397Z,90.74
2023-01-08T08:58:59.478Z,90.54
2023-01-08T09:01:29.431Z,90.53
2023-01-08T09:03:59.020Z,90.45
2023-01-08T09:06:28.612Z,90.49
2023-01-08T09:08:59.235Z,90.19
2023-01-08T09:11:29.791Z,90.31
2023-01-08T09:14:00.124Z,90.01
2023-01-08T09:16:29.694Z,90.14
2023-01-08T09:18:58.712Z,89.86
2023-01-08T09:21:27.868Z,89.67
2023-01-08T09:23:57.571Z,89.85
2023-01-08T09:26:28.322Z,89.56
2023-01-08T09:29:00.902Z,89.84
2023-01-08T09:31:30.369Z,89.50
2023-01-08T09:33:59.638Z,89.12
2023-01-08T09:36:30.348Z,89.35
2023-01-08T09:39:00.781Z,89.18
2023-01-08T09:41:34.114Z,89.08
2023-01-08T09:44:06.430Z,88.89
2023-01-08T09:46:37.441Z,89.00
2023-01-08T09:49:14.862Z,89.07
2023-01-08T09:51:44.334Z,88.54
2023-01-08T09:54:17.077Z,88.70
2023-01-08T09:56:46.916Z,88.26
2023-01-08T09:59:19.048Z,88.51
2023-01-08T10:01:48.955Z,88.54
2023-01-08T10:04:21.189Z,88.56
2023-01-08T10:06:55.527Z,87.95
2023-01-08T10:09:26.556Z,88.00
2023-01-08T10:11:59.434Z,88.46
2023-01-08T10:14:31.065Z,87.72
2023-01-08T10:17:05.818Z,87.97
2023-01-08T10:19:39.525Z,87.42
2023-01-08T10:22:13.687Z,87.75
2023-01-08T10:24:43.256Z,88.09
2023-01-08T10:27:15.777Z,87.65
2023-01-08T10:29:45.000Z,87.31
2023-01-08T10:32:17.655Z,86.67
2023-01-08T10:34:50.427Z,86.67
2023-01-08T10:37:31.703Z,86.96
2023-01-08T10:40:08.506Z,86.45
2023-01-08T10:42:38.289Z,86.68
2023-01-08T10:45:18.778Z,86.81
2023-01-08T10:47:50.711Z,86.39
2023-01-08T10:50:24.764Z,86.00
2023-01-08T10:52:57.222Z,86.42
2023-01-08T10:55:29.710Z,86.18
2023-01-08T10:58:04.830Z,85.71
2023-01-08T11:00:35.830Z,85.97
2023-01-08T11:03:08.171Z,85.57
2023-01-08T11:05:42.547Z,86.25
2023-01-08T11:08:22.760Z,85.87
2023-01-08T11:10:58.167Z,85.52
2023-01-08T11:13:29.397Z,85.29
2023-01-08T11:16:06.246Z,85.12
2023-01-08T11:18:45.607Z,85.15
2023-01-08T11:21:22.424Z,85.08
2023-01-08T11:24:13.212Z,84.95
2023-01-08T11:26:48.530Z,85.24
2023-01-08T11:29:23.111Z,85.46
2023-01-08T11:31:54.860Z,85.84
2023-01-08T11:34:30.715Z,85.76
2023-01-08T11:37:10.793Z,85.19
2023-01-08T11:39:40.668Z,84.69
2023-01-08T11:42:29.920Z,84.44
2023-01-08T11:45:14.278Z,84.91
2023-01-08T11:48:25.149Z,84.72
2023-01-08T11:51:17.417Z,84.83
2023-01-08T11:54:02.917Z,85.33
2023-01-08T11:56:44.880Z,84.83
2023-01-08T11:59:24.320Z,84.70
2023-01-08T12:02:08.050Z,84.68
2023-01-08T12:04:54.584Z,85.44
2023-01-08T12:07:37.456Z,84.60
2023-01-08T12:10:15.587Z,84.49
2023-01-08T12:13:00.947Z,84.74
2023-01-08T12:15:41.105Z,84.92
2023-01-08T12:18:25.405Z,84.82
2023-01-08T12:21:03.348Z,85.01
2023-01-08T12:23:49.674Z,85.17
2023-01-08T12:26:26.061Z,84.88
2023-01-08T12:29:20.280Z,84.86
2023-01-08T12:32:14.746Z,84.59
2023-01-08T12:34:56.295Z,84.56
2023-01-08T12:37:37.616Z,84.58
2023-01-08T12:40:18.007Z,84.90
2023-01-08T12:42:59.963Z,85.29
2023-01-08T12:45:35.834Z,84.92
2023-01-08T12:48:07.782Z,85.18
2023-01-08T12:50:53.576Z,84.89
2023-01-08T12:53:35.091Z,84.70
2023-01-08T12:56:16.779Z,85.42
2023-01-08T12:59:05.741Z,84.89
2023-01-08T13:01:46.286Z,85.16
2023-01-08T13:04:16.052Z,84.99
2023-01-08T13:07:02.561Z,85.06
2023-01-08T13:09:33.109Z,85.08
2023-01-08T13:12:02.787Z,85.09
2023-01-08T13:14:42.991Z,85.36
2023-01-08T13:17:25.064Z,85.43
2023-01-08T13:19:59.734Z,85.30
2023-01-08T13:22:32.699Z,85.39
2023-01-08T13:25:31.719Z,85.48
2023-01-08T13:28:02.385Z,85.48
2023-01-08T13:30:38.939Z,85.60
2023-01-08T13:33:37.400Z,85.72
2023-01-08T13:36:22.836Z,85.78
2023-01-08T13:39:21.419Z,85.81
2023-01-08T13:42:21.904Z,85.87
2023-01-08T13:44:59.771Z,85.91
2023-01-08T13:47:35.223Z,85.96
2023-01-08T13:50:16.886Z,86.01
2023-01-08T13:52:54.724Z,86.00
2023-01-08T13:55:30.779Z,86.06
2023-01-08T13:58:04.485Z,86.06
2023-01-08T14:00:46.397Z,86.03
2023-01-08T14:03:26.811Z,86.09
2023-01-08T14:06:15.605Z,86.15
2023-01-08T14:08:53.584Z,86.21
2023-01-08T14:11:28.320Z,86.32
2023-01-08T14:14:00.341Z,86.39
2023-01-08T14:16:33.238Z,86.44
2023-01-08T14:19:05.150Z,86.50
2023-01-08T14:21:35.539Z,86.54
2023-01-08T14:24:07.315Z,86.59
2023-01-08T14:26:41.528Z,86.62
2023-01-08T14:29:15.634Z,86.63
2023-01-08T14:31:53.569Z,86.72
2023-01-08T14:34:26.942Z,86.73
2023-01-08T14:36:58.076Z,86.82
2023-01-08T14:39:34.481Z,86.87
2023-01-08T14:42:27.682Z,86.89
2023-01-08T14:45:00.284Z,86.95
2023-01-08T14:47:39.112Z,87.03
2023-01-08T14:50:19.670Z,87.10
2023-01-08T14:52:53.624Z,87.07
2023-01-08T14:55:25.988Z,87.15
2023-01-08T14:57:57.727Z,87.24
2023-01-08T15:00:30.395Z,87.32
2023-01-08T15:03:00.040Z,87.26
2023-01-08T15:05:31.551Z,87.31
2023-01-08T15:08:04.070Z,87.34
2023-01-08T15:10:37.224Z,87.26
2023-01-08T15:13:08.254Z,87.34
2023-01-08T15:15:53.593Z,87.36
2023-01-08T15:18:23.543Z,87.40
2023-01-08T15:20:55.233Z,87.46
2023-01-08T15:23:32.603Z,87.42
2023-01-08T15:26:03.907Z,87.31
2023-01-08T15:28:35.658Z,87.36
2023-01-08T15:31:05.469Z,87.36
2023-01-08T15:33:34.825Z,87.30
2023-01-08T15:36:10.375Z,87.32
2023-01-08T15:38:41.387Z,87.26
2023-01-08T15:41:14.559Z,87.30
2023-01-08T15:43:44.208Z,87.34
2023-01-08T15:46:15.370Z,87.37
2023-01-08T15:48:44.883Z,87.37
2023-01-08T15:51:14.008Z,87.37
2023-01-08T15:53:44.695Z,87.39
2023-01-08T15:56:14.808Z,87.39
2023-01-08T15:58:44.633Z,87.34
2023-01-08T16:01:14.827Z,87.34
2023-01-08T16:03:45.175Z,87.37
2023-01-08T16:06:14.940Z,87.35
2023-01-08T16:08:46.761Z,87.43
2023-01-08T16:11:16.838Z,87.46
2023-01-08T16:13:46.480Z,87.39
2023-01-08T16:16:17.705Z,87.41
2023-01-08T16:18:47.229Z,87.41
2023-01-08T16:21:16.272Z,87.39
2023-01-08T16:23:48.187Z,87.42
2023-01-08T16:26:18.208Z,87.46
2023-01-08T16:29:04.747Z,87.48
2023-01-08T16:31:35.484Z,87.45
2023-01-08T16:34:08.786Z,87.44
2023-01-08T16:36:38.023Z,87.44
2023-01-08T16:39:07.848Z,87.48
2023-01-08T16:41:39.088Z,87.48
2023-01-08T16:44:16.812Z,87.47
2023-01-08T16:46:46.646Z,87.45
2023-01-08T16:49:16.008Z,87.46
2023-01-08T16:51:45.105Z,87.45
2023-01-08T16:54:17.031Z,87.46
2023-01-08T16:56:50.074Z,87.44
2023-01-08T16:59:24.241Z,87.42
2023-01-08T17:01:56.536Z,87.46
2023-01-08T17:04:26.381Z,87.46
2023-01-08T17:06:55.792Z,87.46
2023-01-08T17:09:25.370Z,87.44
2023-01-08T17:11:55.415Z,87.46
2023-01-08T17:14:24.699Z,87.43
2023-01-08T17:16:54.730Z,87.46
2023-01-08T17:19:24.631Z,87.44
2023-01-08T17:21:54.536Z,87.47
2023-01-08T17:24:23.730Z,87.39
2023-01-08T17:26:53.848Z,87.47
2023-01-08T17:29:24.087Z,87.44
2023-01-08T17:31:56.268Z,87.41
2023-01-08T17:34:25.692Z,87.43
2023-01-08T17:36:55.885Z,87.49
2023-01-08T17:39:25.104Z,87.51
2023-01-08T17:42:13.214Z,87.51
2023-01-08T17:44:42.489Z,87.49
2023-01-08T17:47:12.080Z,87.51
2023-01-08T17:49:42.247Z,87.56
2023-01-08T17:52:11.846Z,87.61
2023-01-08T17:54:41.064Z,87.59
2023-01-08T17:57:10.879Z,87.57
2023-01-08T17:59:40.303Z,87.63
2023-01-08T18:02:11.709Z,87.63
2023-01-08T18:04:42.343Z,87.65
2023-01-08T18:07:11.670Z,87.64
2023-01-08T18:09:40.970Z,87.69
2023-01-08T18:12:10.259Z,87.64
2023-01-08T18:14:41.307Z,87.61
2023-01-08T18:17:10.608Z,87.63
2023-01-08T18:19:40.446Z,87.67
2023-01-08T18:22:10.308Z,87.76
2023-01-08T18:24:39.661Z,87.79
2023-01-08T18:27:09.662Z,87.80
2023-01-08T18:29:38.758Z,87.82
2023-01-08T18:32:08.192Z,87.77
2023-01-08T18:34:39.024Z,87.84
2023-01-08T18:37:09.649Z,87.75
2023-01-08T18:39:39.315Z,87.77
2023-01-08T18:42:30.681Z,87.83
2023-01-08T18:45:02.192Z,87.86
2023-01-08T18:47:32.490Z,87.90
2023-01-08T18:50:03.481Z,88.00
2023-01-08T18:52:32.881Z,87.91
2023-01-08T18:55:04.440Z,87.91
2023-01-08T18:57:34.223Z,87.92
2023-01-08T19:00:05.053Z,87.92
2023-01-08T19:02:35.400Z,87.98
2023-01-08T19:05:06.234Z,88.00
2023-01-08T19:07:36.034Z,88.02
2023-01-08T19:10:06.054Z,88.07
2023-01-08T19:12:35.538Z,88.09
2023-01-08T19:15:10.724Z,88.09
2023-01-08T19:17:40.703Z,88.06
2023-01-08T19:20:12.194Z,88.09
2023-01-08T19:22:41.833Z,88.16
2023-01-08T19:25:14.697Z,88.24
2023-01-08T19:27:45.042Z,88.37
2023-01-08T19:30:15.234Z,88.40
2023-01-08T19:32:48.443Z,88.28
2023-01-08T19:35:18.760Z,88.33
2023-01-08T19:37:48.315Z,88.47
2023-01-08T19:40:18.185Z,88.33
2023-01-08T19:43:11.114Z,88.46
2023-01-08T19:45:42.386Z,88.44
2023-01-08T19:48:12.885Z,88.45
2023-01-08T19:50:43.345Z,88.49
2023-01-08T19:53:14.581Z,88.64
2023-01-08T19:55:48.666Z,88.60
2023-01-08T19:58:25.191Z,88.58
2023-01-08T20:00:56.054Z,88.66
2023-01-08T20:03:26.245Z,88.57
2023-01-08T20:06:11.518Z,88.60
2023-01-08T20:08:41.638Z,88.67
2023-01-08T20:11:17.158Z,88.72
2023-01-08T20:13:48.944Z,88.61
2023-01-08T20:16:21.202Z,88.80
2023-01-08T20:19:04.139Z,88.68
2023-01-08T20:21:34.663Z,88.66
2023-01-08T20:24:10.104Z,88.62
2023-01-08T20:26:40.305Z,88.62
2023-01-08T20:29:10.516Z,88.55
2023-01-08T20:31:40.452Z,88.59
2023-01-08T20:34:15.261Z,88.69
2023-01-08T20:36:45.987Z,88.86
2023-01-08T20:39:17.591Z,88.84
2023-01-08T20:41:55.772Z,88.75
2023-01-08T20:44:33.702Z,88.78
2023-01-08T20:47:05.139Z,88.79
2023-01-08T20:49:35.536Z,88.88
2023-01-08T20:52:05.909Z,89.16
2023-01-08T20:54:36.147Z,89.00
2023-01-08T20:57:05.587Z,88.98
2023-01-08T20:59:35.496Z,89.06
2023-01-08T21:02:05.791Z,89.09
2023-01-08T21:04:37.632Z,89.16
2023-01-08T21:07:10.159Z,89.06
2023-01-08T21:09:40.420Z,89.30
2023-01-08T21:12:11.016Z,89.32
2023-01-08T21:14:40.671Z,89.28
2023-01-08T21:17:10.874Z,89.32
2023-01-08T21:19:40.511Z,89.61
2023-01-08T21:22:11.823Z,89.40
2023-01-08T21:24:41.530Z,89.53
2023-01-08T21:27:11.049Z,89.75
2023-01-08T21:29:40.551Z,89.69
2023-01-08T21:32:13.115Z,89.65
2023-01-08T21:34:42.825Z,89.47
2023-01-08T21:37:15.127Z,89.64
2023-01-08T21:39:44.441Z,89.88
2023-01-08T21:42:32.710Z,89.90
2023-01-08T21:45:31.311Z,89.97
2023-01-08T21:48:03.608Z,89.86
2023-01-08T21:50:35.345Z,90.04
2023-01-08T21:53:22.996Z,90.20
2023-01-08T21:55:53.193Z,90.09
2023-01-08T21:58:22.530Z,90.10
2023-01-08T22:00:55.068Z,89.94
2023-01-08T22:03:24.502Z,90.26
2023-01-08T22:06:10.994Z,90.30
2023-01-08T22:08:40.469Z,90.38
2023-01-08T22:11:17.389Z,90.26
2023-01-08T22:13:46.712Z,90.28
2023-01-08T22:16:16.309Z,90.49
2023-01-08T22:18:45.600Z,90.58
2023-01-08T22:21:15.210Z,90.62
2023-01-08T22:23:46.846Z,90.59
2023-01-08T22:26:16.365Z,90.71
2023-01-08T22:28:46.145Z,90.76
2023-01-08T22:31:17.147Z,90.75
2023-01-08T22:33:46.708Z,90.80
2023-01-08T22:36:17.041Z,90.93
2023-01-08T22:38:46.174Z,90.96
2023-01-08T22:41:17.946Z,90.84
2023-01-08T22:43:47.218Z,90.98
2023-01-08T22:46:17.469Z,91.01
2023-01-08T22:48:47.319Z,91.10
2023-01-08T22:51:16.727Z,91.18
2023-01-08T22:53:46.221Z,91.21
2023-01-08T22:56:15.603Z,91.22
2023-01-08T22:58:45.665Z,91.10
2023-01-08T23:01:17.463Z,91.07
2023-01-08T23:03:49.634Z,90.91
2023-01-08T23:06:29.528Z,91.10
2023-01-08T23:09:00.852Z,91.18
2023-01-08T23:11:32.879Z,90.99
2023-01-08T23:14:03.406Z,90.95
2023-01-08T23:16:33.392Z,91.26
2023-01-08T23:19:02.694Z,91.35
2023-01-08T23:21:31.938Z,91.28
2023-01-08T23:24:01.871Z,91.26
2023-01-08T23:26:32.260Z,91.24
2023-01-08T23:29:02.759Z,91.20
2023-01-08T23:31:32.227Z,91.18
2023-01-08T23:34:02.609Z,91.34
2023-01-08T23:36:32.727Z,91.18
2023-01-08T23:39:02.672Z,91.32
2023-01-08T23:41:34.914Z,91.05
2023-01-08T23:44:06.618Z,91.19
2023-01-08T23:46:36.925Z,91.40
2023-01-08T23:49:07.121Z,91.38
2023-01-08T23:51:38.236Z,91.37
2023-01-08T23:54:07.657Z,91.04
2023-01-08T23:56:36.904Z,91.19
2023-01-08T23:59:06.214Z,91.36
